Station PAXA2 - Point Arden, AK Image indicating link to RSS feed of recent meteorological observations for station PAXA2


Conditions at PAXA2 as of
(2:13 am AKDT)
1013 GMT on 07/21/2024:
     

Click on the graph icon in the table below to see a time series plot of the last five days of that observation.

5-day plot - Wind Direction Wind Direction (WDIR): S ( 170 deg true )
5-day plot - Wind Speed Wind Speed (WSPD): 1 kts
5-day plot - Wind Gust Wind Gust (GST): 4 kts
5-day plot - Air Temperature Air Temperature (ATMP): 54.1 °F
5-day plot - Dew Point Dew Point (DEWP): 50.5 °F
5-day plot - Wind Speed at 10 Meters Wind Speed at 10 meters (WSPD10M): 2 kts
5-day plot - Wind Speed at 20 Meters Wind Speed at 20 meters (WSPD20M): 2 kts
5-day plot -  Wind Speed, Wind Gust and Atmospheric Pressure Combined plot of Wind Speed, Gust, and Air Pressure
Previous observations
TIME
(AKDT)
5-day plot - Wind Direction
WDIR
 
5-day plot - Wind Speed
WSPD
kts
5-day plot - Wind Gust
GST
kts
5-day plot - Wave Height
WVHT
ft
5-day plot - Dominant Wave Period
DPD
sec
5-day plot - Average Wave Period
APD
sec
5-day plot - Mean Wave Direction
MWD
 
5-day plot - Atmospheric Pressure
PRES
in
5-day plot - Pressure Tendency
PTDY
in
5-day plot - Air Temperature
ATMP
°F
5-day plot - Water Temperature
WTMP
°F
5-day plot - Dew Point
DEWP
°F
5-day plot - Salinity
SAL
psu
5-day plot - Visibility
VIS
nmi
5-day plot - Tide (above MLLW)
TIDE
ft
2024-07-21 02:03 amSSE 3 5------ 53.4- 49.5---
2024-07-21 01:53 am S 1 5------ 55.2- 50.7---
2024-07-21 01:43 am- 0 2------ 55.2- 50.5---
2024-07-21 01:23 am SE 2 3------ 55.4- 50.4---
2024-07-21 01:13 am W 1 3------ 55.2- 49.6---
2024-07-21 01:03 am N 1 3------ 55.6- 49.6---
2024-07-21 12:53 am NW 1 3------ 56.1- 50.2---
2024-07-21 12:43 amNNW 2 5------ 56.3- 50.2---
2024-07-21 12:33 am NW 2 4------ 55.9- 50.2---
2024-07-21 12:23 am NW 2 4------ 55.4- 49.8---
2024-07-21 12:13 am NW 2 5------ 55.4- 49.8---
2024-07-21 12:03 amWNW 3 5------ 54.5- 49.3---
2024-07-20 11:53 pmNNW 3 5------ 54.0- 48.9---
2024-07-20 11:43 pm NW 3 7------ 54.5- 48.9---
2024-07-20 11:33 pmWNW 2 6------ 53.8- 48.6---
2024-07-20 11:23 pm N 4 7------ 55.8- 50.2---
2024-07-20 11:13 pm N 1 3------ 58.3- 52.5---
2024-07-20 11:03 pm- 0 1------ 58.6- 52.2---
2024-07-20 10:53 pm NW 2 4------ 58.6- 52.0---
2024-07-20 10:43 pmWNW 2 4------ 58.5- 52.2---
2024-07-20 10:33 pmWNW 2 5------ 58.3- 52.0---
2024-07-20 10:23 pm SE 2 4------ 58.8- 52.3---
2024-07-20 10:13 pmSSE 3 6------ 59.4- 53.4---
2024-07-20 10:03 pmSSE 1 5------ 58.6- 52.2---
2024-07-20 09:53 pm NE 3 8------ 58.8- 52.3---
2024-07-20 09:43 pmNNW 2 6------ 58.3- 52.9---
2024-07-20 09:33 pm NW 2 7------ 57.0- 51.8---
2024-07-20 09:23 pm NW 2 5------ 57.4- 52.2---
2024-07-20 09:13 pmNNW 3 5------ 58.5- 53.6---
2024-07-20 09:03 pmWNW 2 4------ 59.9- 55.0---
2024-07-20 08:53 pmWNW 3 7------ 60.3- 55.2---
2024-07-20 08:43 pm NW 4 8------ 58.3- 53.8---
2024-07-20 08:33 pm NW 4 8------ 59.4- 53.8---
2024-07-20 08:23 pm NE 2 5------ 62.2- 56.1---
2024-07-20 08:13 pm SE 2 5------ 63.3- 56.8---
2024-07-20 08:03 pmNNW 2 4------ 66.6- 59.2---
2024-07-20 07:53 pm W 1 4------ 67.3- 59.5---
2024-07-20 07:43 pm W 2 5------ 67.3- 59.5---
2024-07-20 07:33 pm W 2 5------ 66.7- 59.2---
2024-07-20 07:23 pm W 1 4------ 66.2- 59.2---
2024-07-20 07:13 pmNNW 2 7------ 65.8- 58.8---
2024-07-20 07:03 pmNNW 2 6------ 66.7- 59.2---
2024-07-20 06:53 pmWNW 2 7------ 67.3- 59.5---
2024-07-20 06:43 pmWNW 2 6------ 67.5- 59.5---
2024-07-20 06:33 pmWNW 2 7------ 67.3- 59.4---
2024-07-20 06:23 pm NW 3 11------ 66.9- 59.2---
2024-07-20 06:13 pm NW 4 10------ 66.4- 59.0---
2024-07-20 06:03 pm NW 3 9------ 65.3- 58.5---
2024-07-20 05:53 pm N 2 6------ 62.6- 56.8---
2024-07-20 05:43 pmESE 2 4------ 61.7- 55.9---
2024-07-20 05:33 pmNNE 2 5------ 64.2- 57.9---
2024-07-20 05:23 pmNNE 2 6------ 63.5- 57.6---
2024-07-20 05:13 pm SE 2 4------ 63.1- 57.2---
2024-07-20 05:03 pm N 2 6------ 63.1- 57.4---
2024-07-20 04:53 pmESE 2 4------ 62.8- 57.0---
2024-07-20 04:43 pm N 2 5------ 64.2- 58.3---
2024-07-20 04:33 pm SW 1 3------ 62.8- 57.6---
2024-07-20 04:23 pm SE 2 3------ 62.1- 56.7---
2024-07-20 04:13 pmESE 1 3------ 62.1- 56.8---
2024-07-20 03:53 pm SE 2 3------ 59.9- 55.4---
2024-07-20 03:43 pm S 2 4------ 59.2- 55.4---
2024-07-20 03:33 pm NW 1 3------ 56.5- 53.4---
2024-07-20 03:23 pm NW 2 3------ 55.8- 52.5---
2024-07-20 03:13 pm N 2 3------ 55.9- 52.7---
2024-07-20 03:03 pmNNW 3 4------ 55.4- 52.2---
2024-07-20 02:53 pmNNW 3 5------ 55.2- 51.8---
2024-07-20 02:43 pm NW 4 6------ 55.4- 51.8---
2024-07-20 02:33 pm NW 4 6------ 55.4- 51.4---
2024-07-20 02:23 pm NW 3 5------ 55.6- 50.9---
2024-07-20 02:13 pm NW 3 4------ 57.2- 52.3---
2024-07-20 02:03 pm NW 3 4------ 56.1- 51.3---
2024-07-20 01:53 pmNNW 2 3------ 55.2- 50.4---
2024-07-20 01:43 pm N 1 3------ 56.1- 50.9---
2024-07-20 01:33 pmESE 3 5------ 57.4- 51.6---
2024-07-20 01:23 pmESE 2 4------ 60.4- 54.1---
2024-07-20 01:13 pmNNW 2 4------ 59.2- 54.5---
2024-07-20 01:03 pm NW 3 4------ 56.3- 51.8---
2024-07-20 12:53 pm NW 2 4------ 58.3- 53.2---
2024-07-20 12:43 pmWNW 1 2------ 60.8- 55.9---
2024-07-20 12:33 pm W 2 3------ 58.6- 53.8---
2024-07-20 12:23 pmWNW 2 5------ 56.1- 52.0---
2024-07-20 12:13 pm NW 3 5------ 55.6- 51.4---
2024-07-20 12:03 pm NW 2 5------ 55.6- 51.6---
2024-07-20 11:53 am N 3 7------ 56.3- 52.2---
2024-07-20 11:43 am W 1 5------ 55.9- 51.8---
2024-07-20 11:33 amENE 2 7------ 55.6- 51.1---
2024-07-20 11:23 amENE 3 8------ 55.8- 50.7---
2024-07-20 11:13 am SE 5 9------ 55.9- 51.1---
2024-07-20 11:03 amSSE 5 9------ 55.4- 50.9---
2024-07-20 10:53 am SE 6 10------ 55.8- 51.1---
2024-07-20 10:43 am SE 5 9------ 55.9- 51.4---
2024-07-20 10:33 am SE 6 10------ 55.6- 51.1---
2024-07-20 10:23 am SE 7 12------ 55.2- 50.7---
2024-07-20 10:13 am SE 6 12------ 54.3- 49.8---
2024-07-20 10:03 amSSE 4 11------ 54.3- 50.2---
2024-07-20 09:53 amSSE 5 11------ 54.0- 49.6---
2024-07-20 09:43 am SE 7 10------ 54.7- 50.9---
2024-07-20 09:33 am SE 7 11------ 54.1- 50.7---
2024-07-20 09:23 amSSE 5 9------ 53.4- 49.8---
2024-07-20 09:13 am SE 7 12------ 53.6- 50.0---
2024-07-20 09:03 am SE 6 10------ 53.8- 50.4---
2024-07-20 08:53 amSSE 5 8------ 53.8- 50.2---
2024-07-20 08:43 am SE 5 10------ 54.7- 51.3---
2024-07-20 08:33 amESE 4 9------ 52.0- 48.7---
2024-07-20 08:23 am E 5 12------ 51.4- 48.4---
2024-07-20 08:13 amESE 3 7------ 51.3- 48.6---
2024-07-20 08:03 am NE 6 10------ 51.6- 49.5---
2024-07-20 07:53 am NW 2 5------ 53.1- 51.3---
2024-07-20 07:43 am- 0 3------ 52.9- 51.3---
2024-07-20 07:33 amSSE 2 3------ 52.5- 50.9---
2024-07-20 07:23 amESE 2 6------ 52.2- 50.4---
2024-07-20 07:13 amESE 2 6------ 51.6- 50.0---
2024-07-20 07:03 amENE 5 7------ 52.0- 50.4---
2024-07-20 06:53 am E 3 5------ 52.0- 50.4---
2024-07-20 06:43 am E 4 7------ 52.3- 50.5---
2024-07-20 06:33 amSSE 4 6------ 55.0- 53.4---
2024-07-20 06:23 am SE 4 8------ 53.8- 52.2---
2024-07-20 06:13 am SE 4 8------ 53.4- 51.8---
2024-07-20 06:03 amSSE 4 6------ 52.3- 50.5---
2024-07-20 05:53 amSSE 5 7------ 54.0- 52.0---
2024-07-20 05:43 amSSE 3 6------ 55.2- 53.6---
2024-07-20 05:33 amSSE 3 5------ 54.9- 53.2---
2024-07-20 05:23 amSSE 2 5------ 53.1- 51.1---
2024-07-20 05:13 amSSE 1 5------ 52.7- 50.7---
2024-07-20 05:03 amWNW 2 4------ 52.5- 50.7---
2024-07-20 04:53 am NW 2 5------ 52.3- 50.4---
2024-07-20 04:43 amWNW 2 5------ 52.9- 50.9---
2024-07-20 04:33 am NW 2 5------ 53.8- 52.0---
2024-07-20 04:23 am NW 2 4------ 54.0- 52.2---
2024-07-20 04:13 amWNW 2 5------ 54.1- 52.3---
2024-07-20 04:03 amWNW 2 6------ 53.4- 51.6---
2024-07-20 03:53 am NE 2 6------ 52.0- 50.0---
2024-07-20 03:43 am E 2 6------ 52.3- 50.4---
2024-07-20 03:33 am S 2 5------ 52.3- 50.5---
2024-07-20 03:23 amESE 2 5------ 52.5- 50.5---
2024-07-20 03:13 amESE 2 5------ 52.0- 50.0---
2024-07-20 03:03 amESE 3 4------ 54.3- 52.3---
2024-07-20 02:53 amSSE 2 3------ 55.6- 53.6---
2024-07-20 02:43 amSSE 3 3------ 55.6- 53.6---
2024-07-20 02:33 amSSE 3 3------ 55.0- 53.1---
2024-07-20 02:23 amSSE 2 3------ 54.7- 52.7---
2024-07-20 02:13 am- 0 2------ 53.6- 51.6---
2024-07-20 02:03 am- 0 1------ 53.1- 51.1---
2024-07-20 01:53 am- 0 2------ 52.7- 50.7---